AZU9577 SBCJ-SBCF
Flight info
| Callsign | AZU9577 |
|---|---|
| Flight time | 2h 29m |
| Altitude | 39000 |
| Route | ATOGU UL576 NITGI UM654 IROBI UN741 REINA |
| Aircraft | A20N/L-L/2000 |
Departure
| Time | 2026-05-08 19:18 |
|---|---|
| Airport | Carajás Airport (SBCJ) |
Arrival
| Time | 2026-05-08 21:47 |
|---|---|
| Airport | Tancredo Neves International Airport (SBCF) |
| Time | Latitude | Longitude | Altitude | Speed | Heading |
|---|---|---|---|---|---|
| 2026-05-08 18:54 | -6.11515 | -50.00126 | 2103 ft | 0 kts | 33° |
| 2026-05-08 19:08 | -6.11518 | -50.00127 | 2102 ft | 0 kts | 31° |
| 2026-05-08 19:08 | -6.11529 | -50.00130 | 2101 ft | 2 kts | 27° |
| 2026-05-08 19:08 | -6.11542 | -50.00139 | 2100 ft | 2 kts | 31° |
| 2026-05-08 19:08 | -6.11555 | -50.00148 | 2099 ft | 2 kts | 58° |
| 2026-05-08 19:09 | -6.11560 | -50.00162 | 2098 ft | 2 kts | 85° |
| 2026-05-08 19:09 | -6.11561 | -50.00178 | 2098 ft | 2 kts | 83° |
| 2026-05-08 19:09 | -6.11560 | -50.00193 | 2098 ft | 2 kts | 118° |
| 2026-05-08 19:09 | -6.11550 | -50.00205 | 2099 ft | 2 kts | 155° |
| 2026-05-08 19:10 | -6.11542 | -50.00207 | 2100 ft | 1 kts | 177° |
| 2026-05-08 19:10 | -6.11537 | -50.00207 | 2101 ft | 0 kts | 173° |
| 2026-05-08 19:11 | -6.11544 | -50.00206 | 2100 ft | 3 kts | 173° |
| 2026-05-08 19:12 | -6.11599 | -50.00200 | 2094 ft | 12 kts | 174° |
| 2026-05-08 19:12 | -6.11704 | -50.00187 | 2083 ft | 9 kts | 173° |
| 2026-05-08 19:12 | -6.11750 | -50.00207 | 2082 ft | 8 kts | 236° |
| 2026-05-08 19:12 | -6.11766 | -50.00265 | 2081 ft | 8 kts | 259° |
| 2026-05-08 19:13 | -6.11774 | -50.00322 | 2082 ft | 7 kts | 263° |
| 2026-05-08 19:13 | -6.11779 | -50.00365 | 2082 ft | 5 kts | 264° |
| 2026-05-08 19:13 | -6.11782 | -50.00395 | 2083 ft | 3 kts | 264° |
| 2026-05-08 19:13 | -6.11784 | -50.00417 | 2083 ft | 2 kts | 264° |
| 2026-05-08 19:14 | -6.11786 | -50.00437 | 2084 ft | 3 kts | 264° |
| 2026-05-08 19:14 | -6.11788 | -50.00466 | 2084 ft | 5 kts | 264° |
| 2026-05-08 19:14 | -6.11793 | -50.00510 | 2085 ft | 7 kts | 264° |
| 2026-05-08 19:14 | -6.11798 | -50.00577 | 2085 ft | 10 kts | 266° |
| 2026-05-08 19:15 | -6.11803 | -50.00655 | 2085 ft | 11 kts | 266° |
| 2026-05-08 19:15 | -6.11809 | -50.00734 | 2085 ft | 11 kts | 264° |
| 2026-05-08 19:15 | -6.11818 | -50.00818 | 2085 ft | 12 kts | 262° |
| 2026-05-08 19:15 | -6.11833 | -50.00901 | 2085 ft | 12 kts | 259° |
| 2026-05-08 19:16 | -6.11850 | -50.00988 | 2085 ft | 12 kts | 261° |
| 2026-05-08 19:16 | -6.11865 | -50.01082 | 2083 ft | 14 kts | 261° |
| 2026-05-08 19:16 | -6.11882 | -50.01186 | 2081 ft | 16 kts | 260° |
| 2026-05-08 19:16 | -6.11889 | -50.01261 | 2080 ft | 3 kts | 29° |
| 2026-05-08 19:17 | -6.11888 | -50.01258 | 2080 ft | 0 kts | 71° |
| 2026-05-08 19:18 | -6.11878 | -50.01218 | 2081 ft | 30 kts | 79° |
| 2026-05-08 19:18 | -6.11821 | -50.00700 | 2086 ft | 114 kts | 84° |
| 2026-05-08 19:18 | -6.11705 | -49.99690 | 2284 ft | 161 kts | 85° |
| 2026-05-08 19:18 | -6.11611 | -49.98553 | 3017 ft | 168 kts | 87° |
| 2026-05-08 19:19 | -6.11525 | -49.97378 | 3870 ft | 170 kts | 85° |
| 2026-05-08 19:19 | -6.11499 | -49.96181 | 4309 ft | 181 kts | 104° |
| 2026-05-08 19:19 | -6.12188 | -49.95078 | 4662 ft | 199 kts | 140° |
| 2026-05-08 19:19 | -6.13494 | -49.94482 | 5141 ft | 215 kts | 171° |
| 2026-05-08 19:20 | -6.15025 | -49.94744 | 5528 ft | 240 kts | 210° |
| 2026-05-08 19:20 | -6.15481 | -49.95068 | 5672 ft | 248 kts | 222° |
| 2026-05-08 19:20 | -6.16549 | -49.97834 | 6545 ft | 275 kts | 265° |
| 2026-05-08 19:20 | -6.16925 | -49.99726 | 7276 ft | 279 kts | 243° |
| 2026-05-08 19:21 | -6.18178 | -50.01177 | 8035 ft | 278 kts | 208° |
| 2026-05-08 19:21 | -6.19969 | -50.01821 | 8855 ft | 276 kts | 191° |
| 2026-05-08 19:21 | -6.21872 | -50.02238 | 9627 ft | 280 kts | 191° |
| 2026-05-08 19:21 | -6.23753 | -50.02727 | 10370 ft | 285 kts | 194° |
| 2026-05-08 19:22 | -6.25652 | -50.03328 | 11128 ft | 288 kts | 197° |
| 2026-05-08 19:22 | -6.27546 | -50.04005 | 11874 ft | 292 kts | 198° |
| 2026-05-08 19:22 | -6.29462 | -50.04742 | 12622 ft | 295 kts | 199° |
| 2026-05-08 19:22 | -6.31393 | -50.05513 | 13370 ft | 299 kts | 200° |
| 2026-05-08 19:23 | -6.33326 | -50.06302 | 14107 ft | 301 kts | 200° |
| 2026-05-08 19:23 | -6.35287 | -50.07110 | 14840 ft | 304 kts | 200° |
| 2026-05-08 19:23 | -6.37244 | -50.07921 | 15557 ft | 307 kts | 200° |
| 2026-05-08 19:23 | -6.39224 | -50.08744 | 16268 ft | 310 kts | 200° |
| 2026-05-08 19:24 | -6.41249 | -50.09587 | 16981 ft | 313 kts | 200° |
| 2026-05-08 19:24 | -6.43265 | -50.10426 | 17675 ft | 316 kts | 200° |
| 2026-05-08 19:24 | -6.45297 | -50.11273 | 18360 ft | 319 kts | 200° |
| 2026-05-08 19:24 | -6.47331 | -50.12120 | 19030 ft | 322 kts | 200° |
| 2026-05-08 19:25 | -6.49398 | -50.12982 | 19696 ft | 325 kts | 200° |
| 2026-05-08 19:25 | -6.51493 | -50.13855 | 20356 ft | 327 kts | 200° |
| 2026-05-08 19:25 | -6.53613 | -50.14738 | 21011 ft | 330 kts | 200° |
| 2026-05-08 19:25 | -6.55736 | -50.15623 | 21651 ft | 333 kts | 200° |
| 2026-05-08 19:26 | -6.57856 | -50.16507 | 22272 ft | 336 kts | 200° |
| 2026-05-08 19:26 | -6.60025 | -50.17411 | 22885 ft | 338 kts | 200° |
| 2026-05-08 19:26 | -6.62207 | -50.18320 | 23482 ft | 341 kts | 199° |
| 2026-05-08 19:26 | -6.64476 | -50.18892 | 24015 ft | 340 kts | 179° |
| 2026-05-08 19:27 | -6.66805 | -50.18569 | 24504 ft | 340 kts | 158° |
| 2026-05-08 19:27 | -6.68987 | -50.17581 | 24752 ft | 350 kts | 152° |
| 2026-05-08 19:27 | -6.71213 | -50.16450 | 24981 ft | 363 kts | 152° |
| 2026-05-08 19:27 | -6.73484 | -50.15292 | 25197 ft | 374 kts | 152° |
| 2026-05-08 19:28 | -6.75851 | -50.14095 | 25411 ft | 386 kts | 152° |
| 2026-05-08 19:28 | -6.78289 | -50.12867 | 25711 ft | 394 kts | 152° |
| 2026-05-08 19:28 | -6.80746 | -50.11636 | 26169 ft | 397 kts | 152° |
| 2026-05-08 19:28 | -6.83222 | -50.10398 | 26656 ft | 399 kts | 153° |
| 2026-05-08 19:29 | -6.85686 | -50.09167 | 27108 ft | 402 kts | 153° |
| 2026-05-08 19:29 | -6.88231 | -50.07896 | 27556 ft | 404 kts | 153° |
| 2026-05-08 19:29 | -6.90749 | -50.06638 | 27987 ft | 406 kts | 153° |
| 2026-05-08 19:29 | -6.93315 | -50.05355 | 28413 ft | 409 kts | 153° |
| 2026-05-08 19:30 | -6.95885 | -50.04071 | 28819 ft | 411 kts | 154° |
| 2026-05-08 19:30 | -6.98435 | -50.02797 | 29197 ft | 414 kts | 154° |
| 2026-05-08 19:30 | -7.01014 | -50.01510 | 29555 ft | 417 kts | 154° |
| 2026-05-08 19:30 | -7.03633 | -50.00203 | 29901 ft | 420 kts | 154° |
| 2026-05-08 19:31 | -7.06250 | -49.98899 | 30240 ft | 422 kts | 154° |
| 2026-05-08 19:31 | -7.08902 | -49.97577 | 30607 ft | 424 kts | 154° |
| 2026-05-08 19:31 | -7.11552 | -49.96257 | 31077 ft | 423 kts | 154° |
| 2026-05-08 19:31 | -7.14152 | -49.94967 | 31566 ft | 421 kts | 154° |
| 2026-05-08 19:32 | -7.16780 | -49.93661 | 32035 ft | 419 kts | 154° |
| 2026-05-08 19:32 | -7.19383 | -49.92365 | 32472 ft | 418 kts | 154° |
| 2026-05-08 19:32 | -7.22007 | -49.91057 | 32890 ft | 417 kts | 154° |
| 2026-05-08 19:32 | -7.24594 | -49.89766 | 33292 ft | 416 kts | 154° |
| 2026-05-08 19:33 | -7.27154 | -49.88486 | 33676 ft | 415 kts | 154° |
| 2026-05-08 19:33 | -7.29751 | -49.87189 | 34054 ft | 414 kts | 154° |
| 2026-05-08 19:33 | -7.32316 | -49.85907 | 34415 ft | 413 kts | 154° |
| 2026-05-08 19:33 | -7.34905 | -49.84612 | 34761 ft | 412 kts | 154° |
| 2026-05-08 19:34 | -7.37442 | -49.83343 | 35090 ft | 411 kts | 154° |
| 2026-05-08 19:34 | -7.40014 | -49.82056 | 35398 ft | 410 kts | 154° |
| 2026-05-08 19:34 | -7.42569 | -49.80777 | 35648 ft | 411 kts | 154° |
| 2026-05-08 19:34 | -7.45115 | -49.79502 | 35875 ft | 412 kts | 154° |
| 2026-05-08 19:35 | -7.47698 | -49.78208 | 36095 ft | 413 kts | 154° |
| 2026-05-08 19:35 | -7.50251 | -49.76929 | 36299 ft | 414 kts | 154° |
| 2026-05-08 19:35 | -7.52840 | -49.75631 | 36498 ft | 415 kts | 154° |
| 2026-05-08 19:35 | -7.55453 | -49.74321 | 36687 ft | 416 kts | 154° |
| 2026-05-08 19:36 | -7.58025 | -49.73033 | 36865 ft | 417 kts | 154° |
| 2026-05-08 19:36 | -7.60610 | -49.71737 | 36983 ft | 419 kts | 154° |
| 2026-05-08 19:36 | -7.63230 | -49.70413 | 36988 ft | 419 kts | 154° |
| 2026-05-08 19:37 | -7.68422 | -49.67781 | 36995 ft | 419 kts | 154° |
| 2026-05-08 19:37 | -7.73632 | -49.65134 | 36997 ft | 419 kts | 154° |
| 2026-05-08 19:38 | -7.78834 | -49.62490 | 36998 ft | 420 kts | 154° |
| 2026-05-08 19:38 | -7.84035 | -49.59846 | 36997 ft | 420 kts | 154° |
| 2026-05-08 19:39 | -7.89239 | -49.57198 | 36998 ft | 419 kts | 154° |
| 2026-05-08 19:39 | -7.94443 | -49.54549 | 36998 ft | 420 kts | 154° |
| 2026-05-08 19:40 | -7.99649 | -49.51898 | 36998 ft | 420 kts | 154° |
| 2026-05-08 19:40 | -8.04885 | -49.49228 | 36998 ft | 419 kts | 154° |
| 2026-05-08 19:41 | -8.10089 | -49.46577 | 36998 ft | 419 kts | 154° |
| 2026-05-08 19:41 | -8.15316 | -49.43959 | 36997 ft | 419 kts | 154° |
| 2026-05-08 19:42 | -8.20538 | -49.41369 | 36996 ft | 419 kts | 154° |
| 2026-05-08 19:42 | -8.25763 | -49.38764 | 36987 ft | 419 kts | 154° |
| 2026-05-08 19:43 | -8.30980 | -49.36155 | 36972 ft | 419 kts | 154° |
| 2026-05-08 19:43 | -8.36237 | -49.33511 | 36957 ft | 420 kts | 154° |
| 2026-05-08 19:44 | -8.41426 | -49.30886 | 36948 ft | 419 kts | 154° |
| 2026-05-08 19:44 | -8.46678 | -49.28242 | 36944 ft | 419 kts | 154° |
| 2026-05-08 19:45 | -8.51901 | -49.25619 | 36943 ft | 420 kts | 154° |
| 2026-05-08 19:45 | -8.57106 | -49.23007 | 36943 ft | 419 kts | 154° |
| 2026-05-08 19:46 | -8.62329 | -49.20387 | 36943 ft | 419 kts | 154° |
| 2026-05-08 19:46 | -8.70160 | -49.16457 | 36943 ft | 419 kts | 154° |
| 2026-05-08 19:47 | -8.75381 | -49.13835 | 36943 ft | 418 kts | 154° |
| 2026-05-08 19:47 | -8.80580 | -49.11224 | 36943 ft | 418 kts | 154° |
| 2026-05-08 19:48 | -8.85805 | -49.08598 | 36943 ft | 417 kts | 154° |
| 2026-05-08 19:48 | -8.90996 | -49.05989 | 36943 ft | 417 kts | 154° |
| 2026-05-08 19:49 | -8.96177 | -49.03384 | 36943 ft | 416 kts | 154° |
| 2026-05-08 19:49 | -9.01353 | -49.00781 | 36944 ft | 415 kts | 154° |
| 2026-05-08 19:50 | -9.06514 | -48.98183 | 36944 ft | 413 kts | 153° |
| 2026-05-08 19:50 | -9.11638 | -48.95603 | 36945 ft | 410 kts | 153° |
| 2026-05-08 19:51 | -9.16741 | -48.93043 | 36942 ft | 409 kts | 153° |
| 2026-05-08 19:51 | -9.21763 | -48.90395 | 36943 ft | 408 kts | 152° |
| 2026-05-08 19:52 | -9.26793 | -48.87703 | 36943 ft | 408 kts | 152° |
| 2026-05-08 19:52 | -9.31830 | -48.85007 | 36943 ft | 408 kts | 152° |
| 2026-05-08 19:53 | -9.36823 | -48.82335 | 36943 ft | 408 kts | 152° |
| 2026-05-08 19:53 | -9.41841 | -48.79649 | 36943 ft | 408 kts | 152° |
| 2026-05-08 19:54 | -9.46876 | -48.76953 | 36943 ft | 408 kts | 152° |
| 2026-05-08 19:54 | -9.51909 | -48.74256 | 36943 ft | 408 kts | 152° |
| 2026-05-08 19:55 | -9.56917 | -48.71570 | 36943 ft | 408 kts | 152° |
| 2026-05-08 19:55 | -9.61922 | -48.68883 | 36943 ft | 408 kts | 152° |
| 2026-05-08 19:56 | -9.66940 | -48.66193 | 36943 ft | 408 kts | 152° |
| 2026-05-08 19:56 | -9.72067 | -48.63732 | 36943 ft | 409 kts | 155° |
| 2026-05-08 19:57 | -9.77260 | -48.61372 | 36943 ft | 409 kts | 155° |
| 2026-05-08 19:57 | -9.82441 | -48.59012 | 36943 ft | 408 kts | 155° |
| 2026-05-08 19:58 | -9.87630 | -48.56643 | 36943 ft | 408 kts | 155° |
| 2026-05-08 19:58 | -9.92803 | -48.54278 | 36943 ft | 409 kts | 155° |
| 2026-05-08 19:59 | -9.97956 | -48.51922 | 36943 ft | 408 kts | 155° |
| 2026-05-08 19:59 | -10.03154 | -48.49543 | 36943 ft | 408 kts | 155° |
| 2026-05-08 20:00 | -10.08328 | -48.47174 | 36943 ft | 408 kts | 155° |
| 2026-05-08 20:00 | -10.13515 | -48.44805 | 36944 ft | 408 kts | 155° |
| 2026-05-08 20:01 | -10.18674 | -48.42450 | 36943 ft | 408 kts | 155° |
| 2026-05-08 20:01 | -10.23849 | -48.40076 | 36943 ft | 408 kts | 155° |
| 2026-05-08 20:02 | -10.29037 | -48.37691 | 36943 ft | 408 kts | 155° |
| 2026-05-08 20:02 | -10.34213 | -48.35318 | 36943 ft | 408 kts | 155° |
| 2026-05-08 20:03 | -10.39386 | -48.32947 | 36943 ft | 408 kts | 155° |
| 2026-05-08 20:03 | -10.44564 | -48.30563 | 36943 ft | 408 kts | 155° |
| 2026-05-08 20:04 | -10.49732 | -48.28188 | 36943 ft | 408 kts | 155° |
| 2026-05-08 20:04 | -10.54876 | -48.25826 | 36943 ft | 408 kts | 155° |
| 2026-05-08 20:05 | -10.60049 | -48.23450 | 36943 ft | 408 kts | 155° |
| 2026-05-08 20:05 | -10.65212 | -48.21079 | 36943 ft | 409 kts | 155° |
| 2026-05-08 20:06 | -10.70393 | -48.18698 | 36943 ft | 409 kts | 155° |
| 2026-05-08 20:06 | -10.75564 | -48.16321 | 36943 ft | 409 kts | 155° |
| 2026-05-08 20:07 | -10.80743 | -48.13940 | 36943 ft | 409 kts | 155° |
| 2026-05-08 20:07 | -10.85917 | -48.11560 | 36943 ft | 409 kts | 155° |
| 2026-05-08 20:08 | -10.91081 | -48.09184 | 36943 ft | 409 kts | 155° |
| 2026-05-08 20:08 | -10.96266 | -48.06797 | 36942 ft | 410 kts | 155° |
| 2026-05-08 20:09 | -11.01487 | -48.04392 | 36942 ft | 412 kts | 155° |
| 2026-05-08 20:09 | -11.06683 | -48.01998 | 36943 ft | 413 kts | 155° |
| 2026-05-08 20:10 | -11.11922 | -47.99585 | 36943 ft | 413 kts | 155° |
| 2026-05-08 20:10 | -11.17177 | -47.97175 | 36943 ft | 413 kts | 155° |
| 2026-05-08 20:11 | -11.22417 | -47.94763 | 36943 ft | 413 kts | 155° |
| 2026-05-08 20:11 | -11.27653 | -47.92347 | 36943 ft | 413 kts | 155° |
| 2026-05-08 20:12 | -11.32870 | -47.89938 | 36943 ft | 413 kts | 155° |
| 2026-05-08 20:12 | -11.38104 | -47.87519 | 36943 ft | 413 kts | 155° |
| 2026-05-08 20:13 | -11.43354 | -47.85090 | 36937 ft | 413 kts | 155° |
| 2026-05-08 20:13 | -11.48572 | -47.82674 | 36924 ft | 413 kts | 155° |
| 2026-05-08 20:14 | -11.53802 | -47.80249 | 36918 ft | 413 kts | 155° |
| 2026-05-08 20:14 | -11.59028 | -47.77830 | 36915 ft | 413 kts | 155° |
| 2026-05-08 20:15 | -11.64260 | -47.75421 | 36915 ft | 413 kts | 155° |
| 2026-05-08 20:15 | -11.69482 | -47.73009 | 36915 ft | 413 kts | 155° |
| 2026-05-08 20:16 | -11.74709 | -47.70590 | 36915 ft | 413 kts | 155° |
| 2026-05-08 20:16 | -11.79939 | -47.68165 | 36915 ft | 413 kts | 155° |
| 2026-05-08 20:17 | -11.85176 | -47.65736 | 36914 ft | 413 kts | 155° |
| 2026-05-08 20:17 | -11.90086 | -47.63457 | 36914 ft | 413 kts | 155° |
| 2026-05-08 20:18 | -11.95451 | -47.60965 | 36915 ft | 413 kts | 155° |
| 2026-05-08 20:18 | -12.00897 | -47.58434 | 36915 ft | 413 kts | 155° |
| 2026-05-08 20:19 | -12.06141 | -47.55993 | 36914 ft | 413 kts | 155° |
| 2026-05-08 20:19 | -12.11413 | -47.53538 | 36915 ft | 413 kts | 155° |
| 2026-05-08 20:20 | -12.16645 | -47.51117 | 36915 ft | 413 kts | 155° |
| 2026-05-08 20:20 | -12.21883 | -47.48704 | 36915 ft | 413 kts | 155° |
| 2026-05-08 20:21 | -12.27122 | -47.46279 | 36915 ft | 413 kts | 155° |
| 2026-05-08 20:21 | -12.32326 | -47.43862 | 36915 ft | 413 kts | 155° |
| 2026-05-08 20:22 | -12.37537 | -47.41437 | 36915 ft | 413 kts | 155° |
| 2026-05-08 20:22 | -12.41899 | -47.39407 | 36915 ft | 413 kts | 155° |
| 2026-05-08 20:23 | -12.47972 | -47.36577 | 36915 ft | 413 kts | 155° |
| 2026-05-08 20:23 | -12.53287 | -47.34094 | 36915 ft | 413 kts | 155° |
| 2026-05-08 20:24 | -12.58599 | -47.31591 | 36915 ft | 413 kts | 155° |
| 2026-05-08 20:24 | -12.63875 | -47.29118 | 36915 ft | 413 kts | 155° |
| 2026-05-08 20:25 | -12.69185 | -47.26635 | 36915 ft | 413 kts | 155° |
| 2026-05-08 20:25 | -12.74477 | -47.24163 | 36915 ft | 413 kts | 155° |
| 2026-05-08 20:26 | -12.79766 | -47.21690 | 36915 ft | 413 kts | 155° |
| 2026-05-08 20:26 | -12.85089 | -47.19199 | 36915 ft | 413 kts | 155° |
| 2026-05-08 20:27 | -12.90388 | -47.16721 | 36915 ft | 413 kts | 155° |
| 2026-05-08 20:27 | -12.95664 | -47.14258 | 36915 ft | 413 kts | 155° |
| 2026-05-08 20:28 | -13.00963 | -47.11775 | 36920 ft | 414 kts | 155° |
| 2026-05-08 20:28 | -13.06330 | -47.09258 | 36950 ft | 418 kts | 156° |
| 2026-05-08 20:29 | -13.11716 | -47.06736 | 37000 ft | 422 kts | 156° |
| 2026-05-08 20:29 | -13.17156 | -47.04197 | 37056 ft | 424 kts | 156° |
| 2026-05-08 20:30 | -13.22596 | -47.01646 | 37086 ft | 423 kts | 156° |
| 2026-05-08 20:30 | -13.28036 | -46.99086 | 37098 ft | 422 kts | 156° |
| 2026-05-08 20:31 | -13.33447 | -46.96543 | 37103 ft | 420 kts | 156° |
| 2026-05-08 20:31 | -13.38855 | -46.94004 | 37105 ft | 419 kts | 156° |
| 2026-05-08 20:32 | -13.44228 | -46.91477 | 37105 ft | 418 kts | 156° |
| 2026-05-08 20:32 | -13.49583 | -46.88969 | 37106 ft | 417 kts | 156° |
| 2026-05-08 20:33 | -13.54924 | -46.86468 | 37105 ft | 416 kts | 156° |
| 2026-05-08 20:33 | -13.60254 | -46.83964 | 37105 ft | 414 kts | 156° |
| 2026-05-08 20:34 | -13.65554 | -46.81470 | 37105 ft | 413 kts | 156° |
| 2026-05-08 20:35 | -13.73485 | -46.77733 | 37105 ft | 412 kts | 156° |
| 2026-05-08 20:35 | -13.78770 | -46.75240 | 37105 ft | 412 kts | 156° |
| 2026-05-08 20:36 | -13.84081 | -46.72735 | 37105 ft | 412 kts | 156° |
| 2026-05-08 20:36 | -13.89374 | -46.70236 | 37105 ft | 412 kts | 156° |
| 2026-05-08 20:37 | -13.94675 | -46.67732 | 37105 ft | 412 kts | 156° |
| 2026-05-08 20:37 | -13.99972 | -46.65228 | 37105 ft | 412 kts | 156° |
| 2026-05-08 20:38 | -14.05265 | -46.62723 | 37105 ft | 412 kts | 155° |
| 2026-05-08 20:38 | -14.10576 | -46.60208 | 37106 ft | 412 kts | 155° |
| 2026-05-08 20:39 | -14.15888 | -46.57700 | 37105 ft | 412 kts | 156° |
| 2026-05-08 20:39 | -14.21167 | -46.55203 | 37105 ft | 412 kts | 156° |
| 2026-05-08 20:40 | -14.26484 | -46.52688 | 37105 ft | 412 kts | 155° |
| 2026-05-08 20:40 | -14.31775 | -46.50172 | 37105 ft | 412 kts | 155° |
| 2026-05-08 20:41 | -14.37062 | -46.47652 | 37105 ft | 412 kts | 155° |
| 2026-05-08 20:41 | -14.42353 | -46.45140 | 37105 ft | 412 kts | 156° |
| 2026-05-08 20:42 | -14.47650 | -46.42638 | 37105 ft | 412 kts | 156° |
| 2026-05-08 20:42 | -14.52905 | -46.40141 | 37105 ft | 412 kts | 155° |
| 2026-05-08 20:43 | -14.58218 | -46.37613 | 37105 ft | 412 kts | 155° |
| 2026-05-08 20:43 | -14.63505 | -46.35107 | 37105 ft | 412 kts | 156° |
| 2026-05-08 20:44 | -14.68809 | -46.32573 | 37105 ft | 412 kts | 155° |
| 2026-05-08 20:44 | -14.74054 | -46.30062 | 37105 ft | 412 kts | 155° |
| 2026-05-08 20:45 | -14.79344 | -46.27537 | 37105 ft | 412 kts | 155° |
| 2026-05-08 20:45 | -14.84630 | -46.25014 | 37105 ft | 412 kts | 155° |
| 2026-05-08 20:46 | -14.89915 | -46.22493 | 37104 ft | 412 kts | 155° |
| 2026-05-08 20:46 | -14.95211 | -46.19986 | 37104 ft | 414 kts | 156° |
| 2026-05-08 20:47 | -15.00577 | -46.17452 | 37104 ft | 417 kts | 156° |
| 2026-05-08 20:47 | -15.05920 | -46.14925 | 37105 ft | 420 kts | 156° |
| 2026-05-08 20:48 | -15.11336 | -46.12361 | 37106 ft | 420 kts | 156° |
| 2026-05-08 20:48 | -15.16685 | -46.09837 | 37105 ft | 420 kts | 156° |
| 2026-05-08 20:49 | -15.21988 | -46.07328 | 37105 ft | 420 kts | 156° |
| 2026-05-08 20:49 | -15.27309 | -46.04803 | 37105 ft | 420 kts | 156° |
| 2026-05-08 20:50 | -15.32611 | -46.02284 | 37105 ft | 420 kts | 156° |
| 2026-05-08 20:50 | -15.37900 | -45.99769 | 37105 ft | 420 kts | 156° |
| 2026-05-08 20:51 | -15.43212 | -45.97242 | 37105 ft | 420 kts | 156° |
| 2026-05-08 20:51 | -15.48512 | -45.94719 | 37105 ft | 420 kts | 156° |
| 2026-05-08 20:52 | -15.53810 | -45.92194 | 37105 ft | 420 kts | 156° |
| 2026-05-08 20:52 | -15.59108 | -45.89669 | 37105 ft | 420 kts | 156° |
| 2026-05-08 20:53 | -15.64410 | -45.87138 | 37105 ft | 420 kts | 156° |
| 2026-05-08 20:53 | -15.69709 | -45.84607 | 37105 ft | 420 kts | 156° |
| 2026-05-08 20:54 | -15.75001 | -45.82074 | 37105 ft | 420 kts | 156° |
| 2026-05-08 20:54 | -15.80324 | -45.79529 | 37104 ft | 420 kts | 156° |
| 2026-05-08 20:55 | -15.85613 | -45.77012 | 37102 ft | 420 kts | 156° |
| 2026-05-08 20:55 | -15.90933 | -45.74480 | 37099 ft | 420 kts | 156° |
| 2026-05-08 20:56 | -15.96236 | -45.71948 | 37096 ft | 420 kts | 156° |
| 2026-05-08 20:56 | -16.01529 | -45.69416 | 37094 ft | 420 kts | 156° |
| 2026-05-08 20:57 | -16.06820 | -45.66883 | 37090 ft | 420 kts | 156° |
| 2026-05-08 20:57 | -16.12155 | -45.64329 | 37086 ft | 421 kts | 156° |
| 2026-05-08 20:58 | -16.17452 | -45.61802 | 37082 ft | 421 kts | 156° |
| 2026-05-08 20:58 | -16.22745 | -45.59269 | 37080 ft | 421 kts | 156° |
| 2026-05-08 20:59 | -16.28058 | -45.56720 | 37079 ft | 421 kts | 156° |
| 2026-05-08 20:59 | -16.33360 | -45.54172 | 37079 ft | 421 kts | 156° |
| 2026-05-08 21:00 | -16.38656 | -45.51626 | 37079 ft | 421 kts | 156° |
| 2026-05-08 21:00 | -16.43954 | -45.49076 | 37079 ft | 421 kts | 156° |
| 2026-05-08 21:01 | -16.49274 | -45.46514 | 37079 ft | 421 kts | 156° |
| 2026-05-08 21:01 | -16.54570 | -45.43961 | 37079 ft | 421 kts | 156° |
| 2026-05-08 21:02 | -16.59857 | -45.41410 | 37079 ft | 420 kts | 156° |
| 2026-05-08 21:02 | -16.65152 | -45.38851 | 37079 ft | 420 kts | 156° |
| 2026-05-08 21:03 | -16.70450 | -45.36286 | 37079 ft | 420 kts | 156° |
| 2026-05-08 21:03 | -16.75722 | -45.33731 | 37079 ft | 420 kts | 156° |
| 2026-05-08 21:04 | -16.81019 | -45.31165 | 37079 ft | 420 kts | 156° |
| 2026-05-08 21:04 | -16.86309 | -45.28610 | 37079 ft | 420 kts | 156° |
| 2026-05-08 21:05 | -16.91628 | -45.26038 | 37079 ft | 420 kts | 156° |
| 2026-05-08 21:05 | -16.96919 | -45.23478 | 37078 ft | 420 kts | 156° |
| 2026-05-08 21:06 | -17.02217 | -45.20910 | 37077 ft | 423 kts | 156° |
| 2026-05-08 21:06 | -17.07579 | -45.18313 | 37077 ft | 426 kts | 156° |
| 2026-05-08 21:07 | -17.12980 | -45.15700 | 37078 ft | 430 kts | 156° |
| 2026-05-08 21:07 | -17.18420 | -45.13071 | 37079 ft | 431 kts | 156° |
| 2026-05-08 21:08 | -17.23837 | -45.10440 | 37079 ft | 430 kts | 156° |
| 2026-05-08 21:08 | -17.29258 | -45.07805 | 37079 ft | 429 kts | 156° |
| 2026-05-08 21:09 | -17.34753 | -45.05517 | 37077 ft | 427 kts | 167° |
| 2026-05-08 21:09 | -17.40646 | -45.04888 | 37078 ft | 425 kts | 184° |
| 2026-05-08 21:10 | -17.46413 | -45.06088 | 37079 ft | 425 kts | 200° |
| 2026-05-08 21:10 | -17.51720 | -45.08747 | 37080 ft | 424 kts | 208° |
| 2026-05-08 21:11 | -17.56900 | -45.11640 | 37079 ft | 424 kts | 208° |
| 2026-05-08 21:11 | -17.62114 | -45.14531 | 37079 ft | 424 kts | 208° |
| 2026-05-08 21:12 | -17.67327 | -45.17406 | 37078 ft | 424 kts | 207° |
| 2026-05-08 21:12 | -17.72596 | -45.20159 | 37079 ft | 424 kts | 206° |
| 2026-05-08 21:13 | -17.77899 | -45.22895 | 37079 ft | 424 kts | 206° |
| 2026-05-08 21:13 | -17.83189 | -45.25633 | 37079 ft | 424 kts | 206° |
| 2026-05-08 21:14 | -17.88489 | -45.28381 | 37101 ft | 425 kts | 206° |
| 2026-05-08 21:14 | -17.93767 | -45.31118 | 37118 ft | 424 kts | 206° |
| 2026-05-08 21:15 | -17.99036 | -45.33851 | 37127 ft | 424 kts | 206° |
| 2026-05-08 21:15 | -18.04367 | -45.36622 | 37130 ft | 424 kts | 206° |
| 2026-05-08 21:15 | -18.06979 | -45.37983 | 37123 ft | 413 kts | 207° |
| 2026-05-08 21:16 | -18.09505 | -45.39302 | 37130 ft | 410 kts | 207° |
| 2026-05-08 21:16 | -18.14722 | -45.42013 | 37134 ft | 422 kts | 206° |
| 2026-05-08 21:17 | -18.20006 | -45.44756 | 37132 ft | 424 kts | 206° |
| 2026-05-08 21:17 | -18.22655 | -45.46134 | 37015 ft | 426 kts | 206° |
| 2026-05-08 21:17 | -18.25295 | -45.47508 | 36649 ft | 423 kts | 206° |
| 2026-05-08 21:17 | -18.27917 | -45.48874 | 36170 ft | 421 kts | 206° |
| 2026-05-08 21:18 | -18.30523 | -45.50233 | 35633 ft | 420 kts | 206° |
| 2026-05-08 21:18 | -18.33128 | -45.51584 | 35048 ft | 420 kts | 204° |
| 2026-05-08 21:18 | -18.35888 | -45.52613 | 34417 ft | 421 kts | 194° |
| 2026-05-08 21:18 | -18.38766 | -45.53056 | 33777 ft | 423 kts | 183° |
| 2026-05-08 21:19 | -18.41734 | -45.52893 | 33127 ft | 425 kts | 172° |
| 2026-05-08 21:19 | -18.44602 | -45.52122 | 32489 ft | 427 kts | 160° |
| 2026-05-08 21:19 | -18.47273 | -45.50773 | 31854 ft | 429 kts | 149° |
| 2026-05-08 21:19 | -18.49681 | -45.48862 | 31207 ft | 431 kts | 138° |
| 2026-05-08 21:20 | -18.51708 | -45.46498 | 30575 ft | 432 kts | 130° |
| 2026-05-08 21:20 | -18.53538 | -45.44011 | 30046 ft | 429 kts | 128° |
| 2026-05-08 21:20 | -18.55317 | -45.41534 | 29651 ft | 423 kts | 128° |
| 2026-05-08 21:20 | -18.57080 | -45.39077 | 29235 ft | 418 kts | 128° |
| 2026-05-08 21:21 | -18.58828 | -45.36652 | 28816 ft | 413 kts | 128° |
| 2026-05-08 21:21 | -18.60564 | -45.34250 | 28393 ft | 408 kts | 128° |
| 2026-05-08 21:21 | -18.62261 | -45.31909 | 27989 ft | 404 kts | 128° |
| 2026-05-08 21:21 | -18.63955 | -45.29575 | 27593 ft | 399 kts | 128° |
| 2026-05-08 21:22 | -18.65636 | -45.27262 | 27184 ft | 395 kts | 128° |
| 2026-05-08 21:22 | -18.67310 | -45.24957 | 26771 ft | 392 kts | 128° |
| 2026-05-08 21:22 | -18.68951 | -45.22697 | 26363 ft | 388 kts | 128° |
| 2026-05-08 21:22 | -18.70602 | -45.20425 | 25945 ft | 385 kts | 128° |
| 2026-05-08 21:23 | -18.72199 | -45.18225 | 25543 ft | 382 kts | 128° |
| 2026-05-08 21:23 | -18.73830 | -45.15979 | 25126 ft | 380 kts | 128° |
| 2026-05-08 21:23 | -18.75417 | -45.13791 | 24717 ft | 377 kts | 128° |
| 2026-05-08 21:23 | -18.76996 | -45.11613 | 24309 ft | 374 kts | 128° |
| 2026-05-08 21:24 | -18.78589 | -45.09420 | 23900 ft | 371 kts | 128° |
| 2026-05-08 21:24 | -18.80145 | -45.07276 | 23501 ft | 368 kts | 128° |
| 2026-05-08 21:24 | -18.81688 | -45.05148 | 23098 ft | 366 kts | 127° |
| 2026-05-08 21:24 | -18.83237 | -45.03010 | 22676 ft | 364 kts | 127° |
| 2026-05-08 21:25 | -18.84768 | -45.00897 | 22239 ft | 363 kts | 127° |
| 2026-05-08 21:25 | -18.86301 | -44.98777 | 21786 ft | 362 kts | 127° |
| 2026-05-08 21:25 | -18.87833 | -44.96659 | 21318 ft | 362 kts | 126° |
| 2026-05-08 21:25 | -18.89348 | -44.94546 | 20837 ft | 363 kts | 128° |
| 2026-05-08 21:26 | -18.90865 | -44.92444 | 20323 ft | 365 kts | 128° |
| 2026-05-08 21:26 | -18.92430 | -44.90284 | 19765 ft | 367 kts | 128° |
| 2026-05-08 21:26 | -18.94006 | -44.88109 | 19272 ft | 366 kts | 128° |
| 2026-05-08 21:26 | -18.95541 | -44.85988 | 18837 ft | 364 kts | 128° |
| 2026-05-08 21:27 | -18.97060 | -44.83885 | 18416 ft | 361 kts | 128° |
| 2026-05-08 21:27 | -18.98584 | -44.81773 | 17992 ft | 359 kts | 128° |
| 2026-05-08 21:27 | -19.00114 | -44.79651 | 17569 ft | 356 kts | 128° |
| 2026-05-08 21:27 | -19.01607 | -44.77580 | 17160 ft | 354 kts | 128° |
| 2026-05-08 21:28 | -19.03093 | -44.75516 | 16752 ft | 351 kts | 128° |
| 2026-05-08 21:28 | -19.04565 | -44.73473 | 16348 ft | 348 kts | 128° |
| 2026-05-08 21:28 | -19.06025 | -44.71446 | 15948 ft | 346 kts | 128° |
| 2026-05-08 21:28 | -19.07476 | -44.69432 | 15546 ft | 343 kts | 128° |
| 2026-05-08 21:29 | -19.08935 | -44.67408 | 15140 ft | 341 kts | 128° |
| 2026-05-08 21:29 | -19.10365 | -44.65426 | 14743 ft | 339 kts | 128° |
| 2026-05-08 21:29 | -19.11804 | -44.63446 | 14342 ft | 336 kts | 128° |
| 2026-05-08 21:29 | -19.13235 | -44.61474 | 13942 ft | 334 kts | 128° |
| 2026-05-08 21:30 | -19.14644 | -44.59524 | 13548 ft | 332 kts | 128° |
| 2026-05-08 21:30 | -19.16011 | -44.57625 | 13393 ft | 320 kts | 128° |
| 2026-05-08 21:30 | -19.17337 | -44.55776 | 13346 ft | 305 kts | 128° |
| 2026-05-08 21:30 | -19.18582 | -44.54040 | 13292 ft | 291 kts | 128° |
| 2026-05-08 21:31 | -19.19787 | -44.52359 | 13238 ft | 277 kts | 128° |
| 2026-05-08 21:31 | -19.20922 | -44.50779 | 13190 ft | 264 kts | 128° |
| 2026-05-08 21:31 | -19.22011 | -44.49260 | 13148 ft | 256 kts | 128° |
| 2026-05-08 21:31 | -19.22858 | -44.47553 | 13089 ft | 263 kts | 101° |
| 2026-05-08 21:32 | -19.22744 | -44.45630 | 12997 ft | 265 kts | 69° |
| 2026-05-08 21:32 | -19.21756 | -44.44026 | 12867 ft | 265 kts | 40° |
| 2026-05-08 21:32 | -19.20139 | -44.43102 | 12755 ft | 263 kts | 11° |
| 2026-05-08 21:32 | -19.18329 | -44.43105 | 12711 ft | 261 kts | 343° |
| 2026-05-08 21:33 | -19.16761 | -44.43991 | 12692 ft | 258 kts | 315° |
| 2026-05-08 21:33 | -19.15604 | -44.45463 | 12698 ft | 257 kts | 305° |
| 2026-05-08 21:33 | -19.14550 | -44.47010 | 12695 ft | 257 kts | 305° |
| 2026-05-08 21:33 | -19.13507 | -44.48529 | 12694 ft | 257 kts | 305° |
| 2026-05-08 21:34 | -19.12462 | -44.50066 | 12689 ft | 257 kts | 298° |
| 2026-05-08 21:34 | -19.12010 | -44.51861 | 12667 ft | 254 kts | 263° |
| 2026-05-08 21:34 | -19.12567 | -44.53612 | 12683 ft | 254 kts | 235° |
| 2026-05-08 21:34 | -19.13839 | -44.54914 | 12678 ft | 255 kts | 209° |
| 2026-05-08 21:35 | -19.15521 | -44.55473 | 12672 ft | 256 kts | 183° |
| 2026-05-08 21:35 | -19.17256 | -44.55167 | 12665 ft | 258 kts | 156° |
| 2026-05-08 21:35 | -19.18697 | -44.54021 | 12667 ft | 260 kts | 131° |
| 2026-05-08 21:35 | -19.19806 | -44.52502 | 12667 ft | 261 kts | 127° |
| 2026-05-08 21:36 | -19.20862 | -44.50956 | 12663 ft | 261 kts | 127° |
| 2026-05-08 21:36 | -19.21936 | -44.49404 | 12661 ft | 261 kts | 128° |
| 2026-05-08 21:36 | -19.23016 | -44.47871 | 12421 ft | 263 kts | 128° |
| 2026-05-08 21:36 | -19.24124 | -44.46319 | 12129 ft | 262 kts | 128° |
| 2026-05-08 21:37 | -19.25238 | -44.44763 | 11843 ft | 261 kts | 128° |
| 2026-05-08 21:37 | -19.26343 | -44.43219 | 11565 ft | 260 kts | 128° |
| 2026-05-08 21:37 | -19.27423 | -44.41710 | 11294 ft | 258 kts | 128° |
| 2026-05-08 21:37 | -19.28516 | -44.40186 | 11021 ft | 257 kts | 128° |
| 2026-05-08 21:38 | -19.29593 | -44.38684 | 10752 ft | 255 kts | 128° |
| 2026-05-08 21:38 | -19.30664 | -44.37189 | 10484 ft | 254 kts | 128° |
| 2026-05-08 21:38 | -19.31685 | -44.35689 | 10225 ft | 256 kts | 123° |
| 2026-05-08 21:38 | -19.32549 | -44.33929 | 10137 ft | 269 kts | 113° |
| 2026-05-08 21:39 | -19.33203 | -44.32055 | 10132 ft | 271 kts | 110° |
| 2026-05-08 21:39 | -19.33801 | -44.30181 | 9938 ft | 268 kts | 109° |
| 2026-05-08 21:39 | -19.34395 | -44.28314 | 9535 ft | 269 kts | 110° |
| 2026-05-08 21:39 | -19.35002 | -44.26435 | 9174 ft | 268 kts | 110° |
| 2026-05-08 21:40 | -19.35607 | -44.24580 | 8836 ft | 266 kts | 110° |
| 2026-05-08 21:40 | -19.36218 | -44.22730 | 8493 ft | 264 kts | 112° |
| 2026-05-08 21:40 | -19.37127 | -44.21033 | 8055 ft | 264 kts | 131° |
| 2026-05-08 21:41 | -19.39840 | -44.18459 | 7390 ft | 259 kts | 141° |
| 2026-05-08 21:41 | -19.41225 | -44.17257 | 7150 ft | 253 kts | 141° |
| 2026-05-08 21:41 | -19.42553 | -44.16095 | 7004 ft | 243 kts | 141° |
| 2026-05-08 21:41 | -19.43809 | -44.14977 | 6964 ft | 229 kts | 140° |
| 2026-05-08 21:42 | -19.45023 | -44.13873 | 6584 ft | 232 kts | 139° |
| 2026-05-08 21:42 | -19.46246 | -44.12745 | 6211 ft | 233 kts | 139° |
| 2026-05-08 21:42 | -19.47453 | -44.11624 | 6004 ft | 226 kts | 139° |
| 2026-05-08 21:42 | -19.48594 | -44.10564 | 5988 ft | 210 kts | 139° |
| 2026-05-08 21:43 | -19.49665 | -44.09567 | 6008 ft | 196 kts | 139° |
| 2026-05-08 21:43 | -19.50667 | -44.08637 | 5823 ft | 188 kts | 139° |
| 2026-05-08 21:43 | -19.51618 | -44.07753 | 5571 ft | 174 kts | 139° |
| 2026-05-08 21:43 | -19.52508 | -44.06928 | 5302 ft | 163 kts | 139° |
| 2026-05-08 21:44 | -19.53334 | -44.06163 | 5060 ft | 153 kts | 139° |
| 2026-05-08 21:44 | -19.54129 | -44.05426 | 4850 ft | 149 kts | 139° |
| 2026-05-08 21:44 | -19.54910 | -44.04703 | 4660 ft | 149 kts | 139° |
| 2026-05-08 21:44 | -19.55698 | -44.03974 | 4472 ft | 149 kts | 139° |
| 2026-05-08 21:45 | -19.56474 | -44.03256 | 4286 ft | 148 kts | 138° |
| 2026-05-08 21:45 | -19.57257 | -44.02531 | 4094 ft | 148 kts | 138° |
| 2026-05-08 21:45 | -19.58032 | -44.01814 | 3899 ft | 147 kts | 138° |
| 2026-05-08 21:45 | -19.58810 | -44.01095 | 3700 ft | 147 kts | 138° |
| 2026-05-08 21:46 | -19.59578 | -44.00384 | 3500 ft | 146 kts | 138° |
| 2026-05-08 21:46 | -19.60346 | -43.99674 | 3304 ft | 146 kts | 138° |
| 2026-05-08 21:46 | -19.61119 | -43.98959 | 3107 ft | 146 kts | 138° |
| 2026-05-08 21:46 | -19.61882 | -43.98257 | 2910 ft | 145 kts | 139° |
| 2026-05-08 21:47 | -19.62643 | -43.97566 | 2755 ft | 140 kts | 138° |
| 2026-05-08 21:47 | -19.63259 | -43.96992 | 2752 ft | 92 kts | 139° |
| 2026-05-08 21:47 | -19.63622 | -43.96658 | 2752 ft | 54 kts | 139° |
| 2026-05-08 21:47 | -19.63892 | -43.96408 | 2751 ft | 48 kts | 139° |
| 2026-05-08 21:48 | -19.64109 | -43.96207 | 2751 ft | 37 kts | 139° |
| 2026-05-08 21:48 | -19.64282 | -43.96048 | 2751 ft | 29 kts | 138° |
| 2026-05-08 21:48 | -19.64357 | -43.95929 | 2751 ft | 10 kts | 52° |
| 2026-05-08 21:48 | -19.64327 | -43.95887 | 2751 ft | 6 kts | 53° |
| 2026-05-08 21:49 | -19.64319 | -43.95875 | 2751 ft | 0 kts | 52° |
| 2026-05-08 21:49 | -19.64314 | -43.95868 | 2751 ft | 1 kts | 52° |
| 2026-05-08 21:49 | -19.64303 | -43.95857 | 2751 ft | 2 kts | 39° |
| 2026-05-08 21:49 | -19.64286 | -43.95845 | 2751 ft | 3 kts | 23° |
| 2026-05-08 21:50 | -19.64260 | -43.95845 | 2751 ft | 4 kts | 345° |
| 2026-05-08 21:50 | -19.64229 | -43.95862 | 2751 ft | 5 kts | 327° |
| 2026-05-08 21:50 | -19.64198 | -43.95889 | 2751 ft | 6 kts | 319° |
| 2026-05-08 21:50 | -19.64163 | -43.95923 | 2751 ft | 7 kts | 318° |
| 2026-05-08 21:51 | -19.64123 | -43.95961 | 2751 ft | 8 kts | 319° |
| 2026-05-08 21:51 | -19.64081 | -43.95999 | 2751 ft | 7 kts | 320° |
| 2026-05-08 21:51 | -19.64041 | -43.96034 | 2751 ft | 7 kts | 321° |
| 2026-05-08 21:51 | -19.64001 | -43.96067 | 2751 ft | 7 kts | 322° |
| 2026-05-08 21:52 | -19.63964 | -43.96098 | 2751 ft | 6 kts | 323° |
| 2026-05-08 21:52 | -19.63935 | -43.96126 | 2751 ft | 4 kts | 311° |
| 2026-05-08 21:52 | -19.63913 | -43.96153 | 2751 ft | 4 kts | 313° |
| 2026-05-08 21:52 | -19.63886 | -43.96182 | 2751 ft | 6 kts | 317° |
| 2026-05-08 21:53 | -19.63844 | -43.96217 | 2751 ft | 8 kts | 322° |
| 2026-05-08 21:53 | -19.63792 | -43.96263 | 2751 ft | 10 kts | 317° |
| 2026-05-08 21:53 | -19.63733 | -43.96321 | 2751 ft | 12 kts | 319° |
| 2026-05-08 21:53 | -19.63661 | -43.96380 | 2751 ft | 13 kts | 334° |
| 2026-05-08 21:54 | -19.63571 | -43.96349 | 2751 ft | 14 kts | 36° |
| 2026-05-08 21:54 | -19.63476 | -43.96323 | 2751 ft | 14 kts | 324° |
| 2026-05-08 21:54 | -19.63415 | -43.96413 | 2751 ft | 14 kts | 338° |
| 2026-05-08 21:54 | -19.63349 | -43.96377 | 2751 ft | 2 kts | 37° |
| 2026-05-08 21:55 | -19.63347 | -43.96376 | 2751 ft | 0 kts | 37° |